Heubach Airport


Codes: EDTH/
Name: Heubach Airport
City: Heubach
Country: Germany
Elevation: 1424 ft.

Photos at Heubach Airport


   Photos courtesy of SpottingLog. You can add your own sightings and photos by signing up for a free trial today.



No photos found.

Weather at Heubach Airport


Time (UTC)DescriptionTempratureWindCloud coverageVisibilityPressureHumidity
21-Jun-2024 12:00Light Rain20°C7 mph, SW100%10000m1016hPa89%
21-Jun-2024 15:00Overcast Clouds20°C9 mph, W98%10000m1015hPa84%
21-Jun-2024 18:00Light Rain16°C11 mph, SW98%10000m1015hPa88%
21-Jun-2024 21:00Light Rain14°C9 mph, SW99%10000m1015hPa93%
22-Jun-2024 00:00Broken Clouds14°C11 mph, SW82%10000m1016hPa94%
22-Jun-2024 03:00Light Rain14°C7 mph, W100%6219m1016hPa98%
22-Jun-2024 06:00Moderate Rain14°C2 mph, W100%10000m1017hPa99%
22-Jun-2024 09:00Light Rain16°C2 mph, SW99%10000m1016hPa90%
22-Jun-2024 12:00Light Rain16°C11 mph, W99%8520m1015hPa95%
22-Jun-2024 15:00Light Rain12°C7 mph, NW100%10000m1017hPa98%
22-Jun-2024 18:00Light Rain13°C4 mph, SW100%10000m1016hPa94%
22-Jun-2024 21:00Overcast Clouds12°C2 mph, S100%10000m1017hPa95%
23-Jun-2024 00:00Overcast Clouds11°C2 mph, E100%10000m1017hPa95%
23-Jun-2024 03:00Overcast Clouds10°C2 mph, NE100%10000m1017hPa96%
23-Jun-2024 06:00Broken Clouds14°C2 mph, SE63%10000m1018hPa89%
23-Jun-2024 09:00Broken Clouds17°C7 mph, NE62%10000m1017hPa70%
23-Jun-2024 12:00Light Rain18°C9 mph, NE78%10000m1017hPa71%
23-Jun-2024 15:00Light Rain19°C7 mph, NE79%10000m1017hPa72%
23-Jun-2024 18:00Light Rain18°C4 mph, NE80%10000m1017hPa87%
23-Jun-2024 21:00Scattered Clouds14°C2 mph, E26%10000m1019hPa95%
24-Jun-2024 00:00Few Clouds13°C4 mph, E13%10000m1019hPa96%
24-Jun-2024 03:00Clear Sky13°C4 mph, NE0%10000m1018hPa98%
24-Jun-2024 06:00Few Clouds16°C7 mph, NE12%10000m1018hPa87%
24-Jun-2024 09:00Clear Sky20°C11 mph, NE0%10000m1017hPa68%
24-Jun-2024 12:00Scattered Clouds22°C11 mph, NE25%10000m1016hPa64%
24-Jun-2024 15:00Broken Clouds23°C11 mph, NE76%10000m1015hPa62%
24-Jun-2024 18:00Scattered Clouds20°C7 mph, E41%10000m1014hPa74%
24-Jun-2024 21:00Clear Sky16°C7 mph, E1%10000m1015hPa80%
25-Jun-2024 00:00Clear Sky14°C7 mph, E0%10000m1014hPa87%
25-Jun-2024 03:00Clear Sky13°C4 mph, E9%10000m1014hPa92%
25-Jun-2024 06:00Scattered Clouds17°C4 mph, E43%10000m1013hPa79%
25-Jun-2024 09:00Overcast Clouds21°C9 mph, E90%10000m1012hPa69%
25-Jun-2024 12:00Overcast Clouds22°C9 mph, NE95%10000m1011hPa66%
25-Jun-2024 15:00Overcast Clouds22°C9 mph, NE100%10000m1009hPa68%
25-Jun-2024 18:00Light Rain21°C4 mph, NE100%10000m1008hPa84%
25-Jun-2024 21:00Light Rain17°C2 mph, N95%10000m1008hPa92%
26-Jun-2024 00:00Moderate Rain16°C2 mph, N97%10000m1007hPa98%
26-Jun-2024 03:00Light Rain15°C2 mph, W94%6731m1006hPa99%
26-Jun-2024 06:00Moderate Rain17°C2 mph, N97%0m1006hPa99%
26-Jun-2024 09:00Light Rain18°C4 mph, W100%10000m1006hPa94%